sensor_id;sensor_type;location;lat;lon;timestamp;temperature;humidity
1461;DHT22;724;49.910;12.530;2022-11-25T00:02:08;4.00;99.90
1461;DHT22;724;49.910;12.530;2022-11-25T00:04:36;4.00;99.90
1461;DHT22;724;49.910;12.530;2022-11-25T00:07:05;4.00;99.90
1461;DHT22;724;49.910;12.530;2022-11-25T00:09:31;4.00;99.90
1461;DHT22;724;49.910;12.530;2022-11-25T00:11:58;3.90;99.90
1461;DHT22;724;49.910;12.530;2022-11-25T00:14:25;3.90;99.90
1461;DHT22;724;49.910;12.530;2022-11-25T00:16:52;3.90;99.90
1461;DHT22;724;49.910;12.530;2022-11-25T00:19:18;3.80;99.90
1461;DHT22;724;49.910;12.530;2022-11-25T00:21:45;3.90;99.90
1461;DHT22;724;49.910;12.530;2022-11-25T00:24:15;3.80;99.90
1461;DHT22;724;49.910;12.530;2022-11-25T00:26:42;3.70;99.90
1461;DHT22;724;49.910;12.530;2022-11-25T00:29:10;3.60;99.90
1461;DHT22;724;49.910;12.530;2022-11-25T00:31:39;3.60;99.90
1461;DHT22;724;49.910;12.530;2022-11-25T00:34:06;3.70;99.90
1461;DHT22;724;49.910;12.530;2022-11-25T00:36:34;3.60;99.90
1461;DHT22;724;49.910;12.530;2022-11-25T00:39:05;3.50;99.90
1461;DHT22;724;49.910;12.530;2022-11-25T00:41:34;3.40;99.90
1461;DHT22;724;49.910;12.530;2022-11-25T00:44:19;3.30;99.90
1461;DHT22;724;49.910;12.530;2022-11-25T00:47:02;3.20;99.90
1461;DHT22;724;49.910;12.530;2022-11-25T00:49:29;3.10;99.90
1461;DHT22;724;49.910;12.530;2022-11-25T00:51:56;3.10;99.90
1461;DHT22;724;49.910;12.530;2022-11-25T00:54:23;3.00;99.90
1461;DHT22;724;49.910;12.530;2022-11-25T00:56:52;2.90;99.90
1461;DHT22;724;49.910;12.530;2022-11-25T00:59:18;2.90;99.90
1461;DHT22;724;49.910;12.530;2022-11-25T01:01:45;2.90;99.90
1461;DHT22;724;49.910;12.530;2022-11-25T01:04:12;2.80;99.90
1461;DHT22;724;49.910;12.530;2022-11-25T01:06:39;2.90;99.90
1461;DHT22;724;49.910;12.530;2022-11-25T01:09:06;3.00;99.90
1461;DHT22;724;49.910;12.530;2022-11-25T01:11:34;2.90;99.90
1461;DHT22;724;49.910;12.530;2022-11-25T01:14:02;2.90;99.90
1461;DHT22;724;49.910;12.530;2022-11-25T01:16:29;3.00;99.90
1461;DHT22;724;49.910;12.530;2022-11-25T01:18:57;3.10;99.90
1461;DHT22;724;49.910;12.530;2022-11-25T01:21:26;3.00;99.90
1461;DHT22;724;49.910;12.530;2022-11-25T01:23:53;3.00;99.90
1461;DHT22;724;49.910;12.530;2022-11-25T01:26:21;3.10;99.90
1461;DHT22;724;49.910;12.530;2022-11-25T01:28:51;3.10;99.90
1461;DHT22;724;49.910;12.530;2022-11-25T01:31:22;3.20;99.90
1461;DHT22;724;49.910;12.530;2022-11-25T01:33:52;3.10;99.90
1461;DHT22;724;49.910;12.530;2022-11-25T01:36:19;2.90;99.90
1461;DHT22;724;49.910;12.530;2022-11-25T01:38:49;2.90;99.90
1461;DHT22;724;49.910;12.530;2022-11-25T01:41:16;3.00;99.90
1461;DHT22;724;49.910;12.530;2022-11-25T01:43:43;3.00;99.90
1461;DHT22;724;49.910;12.530;2022-11-25T01:46:18;3.00;99.90
1461;DHT22;724;49.910;12.530;2022-11-25T01:48:51;3.00;99.90
1461;DHT22;724;49.910;12.530;2022-11-25T01:51:25;2.90;99.90
1461;DHT22;724;49.910;12.530;2022-11-25T01:53:56;2.80;99.90
1461;DHT22;724;49.910;12.530;2022-11-25T01:56:25;2.80;99.90
1461;DHT22;724;49.910;12.530;2022-11-25T01:58:54;2.80;99.90
1461;DHT22;724;49.910;12.530;2022-11-25T02:01:21;2.90;99.90
1461;DHT22;724;49.910;12.530;2022-11-25T02:03:51;2.90;99.90
1461;DHT22;724;49.910;12.530;2022-11-25T02:06:22;2.90;99.90
1461;DHT22;724;49.910;12.530;2022-11-25T02:08:55;2.80;99.90
1461;DHT22;724;49.910;12.530;2022-11-25T02:11:24;2.80;99.90
1461;DHT22;724;49.910;12.530;2022-11-25T02:13:52;2.80;99.90
1461;DHT22;724;49.910;12.530;2022-11-25T02:16:19;2.80;99.90
1461;DHT22;724;49.910;12.530;2022-11-25T02:18:46;2.70;99.90
1461;DHT22;724;49.910;12.530;2022-11-25T02:21:18;2.70;99.90
1461;DHT22;724;49.910;12.530;2022-11-25T02:23:50;2.70;99.90
1461;DHT22;724;49.910;12.530;2022-11-25T02:26:19;2.60;99.90
1461;DHT22;724;49.910;12.530;2022-11-25T02:28:47;2.60;99.90
1461;DHT22;724;49.910;12.530;2022-11-25T02:31:18;2.50;99.90
1461;DHT22;724;49.910;12.530;2022-11-25T02:33:45;2.40;99.90
1461;DHT22;724;49.910;12.530;2022-11-25T02:36:14;2.30;99.90
1461;DHT22;724;49.910;12.530;2022-11-25T02:38:44;2.30;99.90
1461;DHT22;724;49.910;12.530;2022-11-25T02:41:16;2.30;99.90
1461;DHT22;724;49.910;12.530;2022-11-25T02:43:45;2.20;99.90
1461;DHT22;724;49.910;12.530;2022-11-25T02:46:14;2.20;99.90
1461;DHT22;724;49.910;12.530;2022-11-25T02:48:41;2.10;99.90
1461;DHT22;724;49.910;12.530;2022-11-25T02:51:11;2.10;99.90
1461;DHT22;724;49.910;12.530;2022-11-25T02:53:38;2.10;99.90
1461;DHT22;724;49.910;12.530;2022-11-25T02:56:06;2.10;99.90
1461;DHT22;724;49.910;12.530;2022-11-25T02:58:33;2.10;99.90
1461;DHT22;724;49.910;12.530;2022-11-25T03:01:02;2.20;99.90
1461;DHT22;724;49.910;12.530;2022-11-25T03:03:30;2.20;99.90
1461;DHT22;724;49.910;12.530;2022-11-25T03:05:56;2.30;99.90
1461;DHT22;724;49.910;12.530;2022-11-25T03:08:23;2.30;99.90
1461;DHT22;724;49.910;12.530;2022-11-25T03:10:50;2.40;99.90
1461;DHT22;724;49.910;12.530;2022-11-25T03:13:17;2.40;99.90
1461;DHT22;724;49.910;12.530;2022-11-25T03:15:44;2.40;99.90
1461;DHT22;724;49.910;12.530;2022-11-25T03:18:12;2.40;99.90
1461;DHT22;724;49.910;12.530;2022-11-25T03:20:40;2.30;99.90
1461;DHT22;724;49.910;12.530;2022-11-25T03:23:06;2.30;99.90
1461;DHT22;724;49.910;12.530;2022-11-25T03:25:34;2.30;99.90
1461;DHT22;724;49.910;12.530;2022-11-25T03:28:01;2.20;99.90
1461;DHT22;724;49.910;12.530;2022-11-25T03:30:29;2.10;99.90
1461;DHT22;724;49.910;12.530;2022-11-25T03:32:56;2.00;99.90
1461;DHT22;724;49.910;12.530;2022-11-25T03:35:25;2.10;99.90
1461;DHT22;724;49.910;12.530;2022-11-25T03:37:52;2.00;99.90
1461;DHT22;724;49.910;12.530;2022-11-25T03:40:19;2.00;99.90
1461;DHT22;724;49.910;12.530;2022-11-25T03:42:46;2.00;99.90
1461;DHT22;724;49.910;12.530;2022-11-25T03:45:14;1.90;99.90
1461;DHT22;724;49.910;12.530;2022-11-25T03:47:42;2.00;99.90
1461;DHT22;724;49.910;12.530;2022-11-25T03:50:11;2.00;99.90
1461;DHT22;724;49.910;12.530;2022-11-25T03:52:40;2.10;99.90
1461;DHT22;724;49.910;12.530;2022-11-25T03:55:07;2.00;99.90
1461;DHT22;724;49.910;12.530;2022-11-25T03:57:34;1.90;99.90
1461;DHT22;724;49.910;12.530;2022-11-25T04:00:02;1.90;99.90
1461;DHT22;724;49.910;12.530;2022-11-25T04:02:29;1.90;99.90
1461;DHT22;724;49.910;12.530;2022-11-25T04:04:56;1.90;99.90
1461;DHT22;724;49.910;12.530;2022-11-25T04:07:23;1.90;99.90
1461;DHT22;724;49.910;12.530;2022-11-25T04:09:51;1.90;99.90
1461;DHT22;724;49.910;12.530;2022-11-25T04:12:18;1.90;99.90
1461;DHT22;724;49.910;12.530;2022-11-25T04:15:03;2.00;99.90
1461;DHT22;724;49.910;12.530;2022-11-25T04:17:30;2.00;99.90
1461;DHT22;724;49.910;12.530;2022-11-25T04:19:57;1.90;99.90
1461;DHT22;724;49.910;12.530;2022-11-25T04:22:25;1.90;99.90
1461;DHT22;724;49.910;12.530;2022-11-25T04:24:53;1.90;99.90
1461;DHT22;724;49.910;12.530;2022-11-25T04:27:19;2.00;99.90
1461;DHT22;724;49.910;12.530;2022-11-25T04:29:46;2.00;99.90
1461;DHT22;724;49.910;12.530;2022-11-25T04:32:13;2.10;99.90
1461;DHT22;724;49.910;12.530;2022-11-25T04:34:40;2.10;99.90
1461;DHT22;724;49.910;12.530;2022-11-25T04:37:06;2.20;99.90
1461;DHT22;724;49.910;12.530;2022-11-25T04:39:33;2.20;99.90
1461;DHT22;724;49.910;12.530;2022-11-25T04:42:02;2.30;99.90
1461;DHT22;724;49.910;12.530;2022-11-25T04:44:46;2.30;99.90
1461;DHT22;724;49.910;12.530;2022-11-25T04:47:13;2.30;99.90
1461;DHT22;724;49.910;12.530;2022-11-25T04:49:40;2.30;99.90
1461;DHT22;724;49.910;12.530;2022-11-25T04:52:07;2.30;99.90
1461;DHT22;724;49.910;12.530;2022-11-25T04:54:33;2.30;99.90
1461;DHT22;724;49.910;12.530;2022-11-25T04:57:01;2.30;99.90
1461;DHT22;724;49.910;12.530;2022-11-25T04:59:28;2.30;99.90
1461;DHT22;724;49.910;12.530;2022-11-25T05:02:11;2.30;99.90
1461;DHT22;724;49.910;12.530;2022-11-25T05:04:38;2.30;99.90
1461;DHT22;724;49.910;12.530;2022-11-25T05:07:05;2.30;99.90
1461;DHT22;724;49.910;12.530;2022-11-25T05:09:32;2.40;99.90
1461;DHT22;724;49.910;12.530;2022-11-25T05:11:58;2.30;99.90
1461;DHT22;724;49.910;12.530;2022-11-25T05:14:26;2.30;99.90
1461;DHT22;724;49.910;12.530;2022-11-25T05:16:53;2.40;99.90
1461;DHT22;724;49.910;12.530;2022-11-25T05:19:20;2.40;99.90
1461;DHT22;724;49.910;12.530;2022-11-25T05:21:47;2.40;99.90
1461;DHT22;724;49.910;12.530;2022-11-25T05:24:14;2.40;99.90
1461;DHT22;724;49.910;12.530;2022-11-25T05:26:41;2.40;99.90
1461;DHT22;724;49.910;12.530;2022-11-25T05:29:08;2.40;99.90
1461;DHT22;724;49.910;12.530;2022-11-25T05:31:36;2.40;99.90
1461;DHT22;724;49.910;12.530;2022-11-25T05:34:03;2.40;99.90
1461;DHT22;724;49.910;12.530;2022-11-25T05:36:30;2.30;99.90
1461;DHT22;724;49.910;12.530;2022-11-25T05:38:57;2.30;99.90
1461;DHT22;724;49.910;12.530;2022-11-25T05:41:24;2.30;99.90
1461;DHT22;724;49.910;12.530;2022-11-25T05:43:51;2.30;99.90
1461;DHT22;724;49.910;12.530;2022-11-25T05:46:18;2.30;99.90
1461;DHT22;724;49.910;12.530;2022-11-25T05:48:46;2.20;99.90
1461;DHT22;724;49.910;12.530;2022-11-25T05:51:13;2.30;99.90
1461;DHT22;724;49.910;12.530;2022-11-25T05:53:40;2.30;99.90
1461;DHT22;724;49.910;12.530;2022-11-25T05:56:08;2.40;99.90
1461;DHT22;724;49.910;12.530;2022-11-25T05:58:35;2.40;99.90
1461;DHT22;724;49.910;12.530;2022-11-25T06:01:05;2.40;99.90
1461;DHT22;724;49.910;12.530;2022-11-25T06:03:33;2.50;99.90
1461;DHT22;724;49.910;12.530;2022-11-25T06:06:01;2.50;99.90
1461;DHT22;724;49.910;12.530;2022-11-25T06:08:28;2.50;99.90
1461;DHT22;724;49.910;12.530;2022-11-25T06:10:55;2.50;99.90
1461;DHT22;724;49.910;12.530;2022-11-25T06:13:22;2.50;99.90
1461;DHT22;724;49.910;12.530;2022-11-25T06:15:49;2.50;99.90
1461;DHT22;724;49.910;12.530;2022-11-25T06:18:16;2.50;99.90
1461;DHT22;724;49.910;12.530;2022-11-25T06:20:44;2.50;99.90
1461;DHT22;724;49.910;12.530;2022-11-25T06:23:12;2.50;99.90
1461;DHT22;724;49.910;12.530;2022-11-25T06:25:40;2.50;99.90
1461;DHT22;724;49.910;12.530;2022-11-25T06:28:06;2.50;99.90
1461;DHT22;724;49.910;12.530;2022-11-25T06:30:34;2.60;99.90
1461;DHT22;724;49.910;12.530;2022-11-25T06:33:01;2.60;99.90
1461;DHT22;724;49.910;12.530;2022-11-25T06:35:28;2.40;99.90
1461;DHT22;724;49.910;12.530;2022-11-25T06:37:55;2.40;99.90
1461;DHT22;724;49.910;12.530;2022-11-25T06:40:24;2.40;99.90
1461;DHT22;724;49.910;12.530;2022-11-25T06:42:51;2.40;99.90
1461;DHT22;724;49.910;12.530;2022-11-25T06:45:18;2.40;99.90
1461;DHT22;724;49.910;12.530;2022-11-25T06:47:45;2.40;99.90
1461;DHT22;724;49.910;12.530;2022-11-25T06:50:12;2.40;99.90
1461;DHT22;724;49.910;12.530;2022-11-25T06:52:40;2.40;99.90
1461;DHT22;724;49.910;12.530;2022-11-25T06:55:07;2.40;99.90
1461;DHT22;724;49.910;12.530;2022-11-25T06:57:35;2.50;99.90
1461;DHT22;724;49.910;12.530;2022-11-25T07:00:04;2.40;99.90
1461;DHT22;724;49.910;12.530;2022-11-25T07:02:32;2.50;99.90
1461;DHT22;724;49.910;12.530;2022-11-25T07:04:59;2.60;99.90
1461;DHT22;724;49.910;12.530;2022-11-25T07:07:25;2.70;99.90
1461;DHT22;724;49.910;12.530;2022-11-25T07:09:52;2.70;99.90
1461;DHT22;724;49.910;12.530;2022-11-25T07:12:19;2.80;99.90
1461;DHT22;724;49.910;12.530;2022-11-25T07:14:50;2.80;99.90
1461;DHT22;724;49.910;12.530;2022-11-25T07:17:17;2.70;99.90
1461;DHT22;724;49.910;12.530;2022-11-25T07:19:44;2.70;99.90
1461;DHT22;724;49.910;12.530;2022-11-25T07:22:11;2.80;99.90
1461;DHT22;724;49.910;12.530;2022-11-25T07:24:38;2.80;99.90
1461;DHT22;724;49.910;12.530;2022-11-25T07:27:04;2.80;99.90
1461;DHT22;724;49.910;12.530;2022-11-25T07:29:32;2.80;99.90
1461;DHT22;724;49.910;12.530;2022-11-25T07:32:02;2.80;99.90
1461;DHT22;724;49.910;12.530;2022-11-25T07:34:29;3.00;99.90
1461;DHT22;724;49.910;12.530;2022-11-25T07:36:56;3.10;99.90
1461;DHT22;724;49.910;12.530;2022-11-25T07:39:23;3.20;99.90
1461;DHT22;724;49.910;12.530;2022-11-25T07:41:50;3.30;99.90
1461;DHT22;724;49.910;12.530;2022-11-25T07:44:19;3.30;99.90
1461;DHT22;724;49.910;12.530;2022-11-25T07:46:47;3.30;99.90
1461;DHT22;724;49.910;12.530;2022-11-25T07:49:18;3.30;99.90
1461;DHT22;724;49.910;12.530;2022-11-25T07:51:48;3.50;99.90
1461;DHT22;724;49.910;12.530;2022-11-25T07:54:15;3.60;99.90
1461;DHT22;724;49.910;12.530;2022-11-25T07:56:43;3.80;99.90
1461;DHT22;724;49.910;12.530;2022-11-25T07:59:12;4.10;99.90
1461;DHT22;724;49.910;12.530;2022-11-25T08:01:40;3.80;99.90
1461;DHT22;724;49.910;12.530;2022-11-25T08:04:08;3.50;99.90
1461;DHT22;724;49.910;12.530;2022-11-25T08:06:39;3.70;99.90
1461;DHT22;724;49.910;12.530;2022-11-25T08:09:07;3.70;99.90
1461;DHT22;724;49.910;12.530;2022-11-25T08:11:36;3.60;99.90
1461;DHT22;724;49.910;12.530;2022-11-25T08:14:03;3.70;99.90
1461;DHT22;724;49.910;12.530;2022-11-25T08:16:30;3.50;99.90
1461;DHT22;724;49.910;12.530;2022-11-25T08:18:58;3.50;99.90
1461;DHT22;724;49.910;12.530;2022-11-25T08:21:26;3.90;99.90
1461;DHT22;724;49.910;12.530;2022-11-25T08:23:55;4.30;99.90
1461;DHT22;724;49.910;12.530;2022-11-25T08:26:27;4.70;1.00
1461;DHT22;724;49.910;12.530;2022-11-25T08:28:55;4.80;1.00
1461;DHT22;724;49.910;12.530;2022-11-25T08:31:24;5.30;99.90
1461;DHT22;724;49.910;12.530;2022-11-25T08:33:52;5.80;1.00
1461;DHT22;724;49.910;12.530;2022-11-25T08:36:19;6.40;99.90
1461;DHT22;724;49.910;12.530;2022-11-25T08:38:48;7.20;1.00
1461;DHT22;724;49.910;12.530;2022-11-25T08:41:19;8.10;99.90
1461;DHT22;724;49.910;12.530;2022-11-25T08:43:46;7.60;1.00
1461;DHT22;724;49.910;12.530;2022-11-25T08:46:15;7.10;1.00
1461;DHT22;724;49.910;12.530;2022-11-25T08:48:42;6.20;1.00
1461;DHT22;724;49.910;12.530;2022-11-25T08:51:11;5.80;1.00
1461;DHT22;724;49.910;12.530;2022-11-25T08:53:40;5.90;44.40
1461;DHT22;724;49.910;12.530;2022-11-25T08:56:08;6.50;1.00
1461;DHT22;724;49.910;12.530;2022-11-25T08:58:37;9.20;1.00
1461;DHT22;724;49.910;12.530;2022-11-25T09:01:05;8.10;7.00
1461;DHT22;724;49.910;12.530;2022-11-25T09:03:33;6.90;16.60
1461;DHT22;724;49.910;12.530;2022-11-25T09:06:01;6.00;99.90
1461;DHT22;724;49.910;12.530;2022-11-25T09:08:28;5.50;1.00
1461;DHT22;724;49.910;12.530;2022-11-25T09:10:56;5.40;1.00
1461;DHT22;724;49.910;12.530;2022-11-25T09:13:22;5.30;99.90
1461;DHT22;724;49.910;12.530;2022-11-25T09:15:51;5.00;1.00
1461;DHT22;724;49.910;12.530;2022-11-25T09:18:18;5.30;1.00
1461;DHT22;724;49.910;12.530;2022-11-25T09:20:50;5.50;1.00
1461;DHT22;724;49.910;12.530;2022-11-25T09:23:17;5.20;99.90
1461;DHT22;724;49.910;12.530;2022-11-25T09:25:50;5.00;1.00
1461;DHT22;724;49.910;12.530;2022-11-25T09:28:17;5.10;1.00
1461;DHT22;724;49.910;12.530;2022-11-25T09:30:44;5.50;1.00
1461;DHT22;724;49.910;12.530;2022-11-25T09:33:12;5.50;99.90
1461;DHT22;724;49.910;12.530;2022-11-25T09:35:39;6.20;99.90
1461;DHT22;724;49.910;12.530;2022-11-25T09:38:06;5.60;99.90
1461;DHT22;724;49.910;12.530;2022-11-25T09:40:37;5.30;99.90
1461;DHT22;724;49.910;12.530;2022-11-25T09:43:10;5.10;1.00
1461;DHT22;724;49.910;12.530;2022-11-25T09:46:07;4.80;1.00
1461;DHT22;724;49.910;12.530;2022-11-25T09:49:03;5.30;1.00
1461;DHT22;724;49.910;12.530;2022-11-25T09:51:37;5.80;1.00
1461;DHT22;724;49.910;12.530;2022-11-25T09:54:14;5.20;1.00
1461;DHT22;724;49.910;12.530;2022-11-25T09:56:47;4.90;1.00
1461;DHT22;724;49.910;12.530;2022-11-25T09:59:18;5.00;99.90
1461;DHT22;724;49.910;12.530;2022-11-25T10:01:48;5.10;98.30
1461;DHT22;724;49.910;12.530;2022-11-25T10:04:23;5.20;99.90
1461;DHT22;724;49.910;12.530;2022-11-25T10:06:54;5.20;1.00
1461;DHT22;724;49.910;12.530;2022-11-25T10:09:24;5.20;1.00
1461;DHT22;724;49.910;12.530;2022-11-25T10:11:54;5.30;1.00
1461;DHT22;724;49.910;12.530;2022-11-25T10:14:29;5.60;1.00
1461;DHT22;724;49.910;12.530;2022-11-25T10:17:02;5.70;1.00
1461;DHT22;724;49.910;12.530;2022-11-25T10:19:40;5.70;99.90
1461;DHT22;724;49.910;12.530;2022-11-25T10:22:20;6.00;99.90
1461;DHT22;724;49.910;12.530;2022-11-25T10:24:47;6.40;99.90
1461;DHT22;724;49.910;12.530;2022-11-25T10:27:23;6.20;99.90
1461;DHT22;724;49.910;12.530;2022-11-25T10:29:59;5.90;99.90
1461;DHT22;724;49.910;12.530;2022-11-25T10:32:34;5.60;99.90
1461;DHT22;724;49.910;12.530;2022-11-25T10:35:10;5.70;1.00
1461;DHT22;724;49.910;12.530;2022-11-25T10:37:44;5.80;1.00
1461;DHT22;724;49.910;12.530;2022-11-25T10:40:13;5.90;99.90
1461;DHT22;724;49.910;12.530;2022-11-25T10:42:41;5.80;99.90
1461;DHT22;724;49.910;12.530;2022-11-25T10:45:09;6.10;99.90
1461;DHT22;724;49.910;12.530;2022-11-25T10:47:58;6.80;99.90
1461;DHT22;724;49.910;12.530;2022-11-25T10:50:52;8.40;1.00
1461;DHT22;724;49.910;12.530;2022-11-25T10:53:26;7.70;99.90
1461;DHT22;724;49.910;12.530;2022-11-25T10:56:00;8.00;99.90
1461;DHT22;724;49.910;12.530;2022-11-25T10:58:31;8.90;1.00
1461;DHT22;724;49.910;12.530;2022-11-25T11:01:19;10.30;1.00
1461;DHT22;724;49.910;12.530;2022-11-25T11:03:51;10.60;1.00
1461;DHT22;724;49.910;12.530;2022-11-25T11:06:31;10.20;99.90
1461;DHT22;724;49.910;12.530;2022-11-25T11:08:58;10.30;99.90
1461;DHT22;724;49.910;12.530;2022-11-25T11:11:26;8.80;99.90
1461;DHT22;724;49.910;12.530;2022-11-25T11:14:13;9.90;99.90
1461;DHT22;724;49.910;12.530;2022-11-25T11:16:46;12.10;24.00
1461;DHT22;724;49.910;12.530;2022-11-25T11:19:21;11.60;1.00
1461;DHT22;724;49.910;12.530;2022-11-25T11:21:53;11.20;1.00
1461;DHT22;724;49.910;12.530;2022-11-25T11:24:26;10.10;1.00
1461;DHT22;724;49.910;12.530;2022-11-25T11:27:05;8.90;1.00
1461;DHT22;724;49.910;12.530;2022-11-25T11:29:32;8.60;1.00
1461;DHT22;724;49.910;12.530;2022-11-25T11:32:00;8.10;97.70
1461;DHT22;724;49.910;12.530;2022-11-25T11:34:44;9.60;94.10
1461;DHT22;724;49.910;12.530;2022-11-25T11:37:26;9.00;8.70
1461;DHT22;724;49.910;12.530;2022-11-25T11:40:11;9.60;1.00
1461;DHT22;724;49.910;12.530;2022-11-25T11:42:44;9.20;1.00
1461;DHT22;724;49.910;12.530;2022-11-25T11:45:27;7.50;66.70
1461;DHT22;724;49.910;12.530;2022-11-25T11:48:08;6.80;99.90
1461;DHT22;724;49.910;12.530;2022-11-25T11:50:39;6.10;1.00
1461;DHT22;724;49.910;12.530;2022-11-25T11:53:15;6.30;1.00
1461;DHT22;724;49.910;12.530;2022-11-25T11:55:53;6.10;1.00
1461;DHT22;724;49.910;12.530;2022-11-25T11:58:33;5.90;1.00
1461;DHT22;724;49.910;12.530;2022-11-25T12:01:13;6.00;1.00
1461;DHT22;724;49.910;12.530;2022-11-25T12:03:54;5.80;50.60
1461;DHT22;724;49.910;12.530;2022-11-25T12:06:24;6.00;99.90
1461;DHT22;724;49.910;12.530;2022-11-25T12:08:56;5.70;99.90
1461;DHT22;724;49.910;12.530;2022-11-25T12:11:31;6.00;1.00
1461;DHT22;724;49.910;12.530;2022-11-25T12:14:02;6.40;99.90
1461;DHT22;724;49.910;12.530;2022-11-25T12:16:33;6.40;99.90
1461;DHT22;724;49.910;12.530;2022-11-25T12:19:06;6.40;99.90
1461;DHT22;724;49.910;12.530;2022-11-25T12:21:40;6.70;61.60
1461;DHT22;724;49.910;12.530;2022-11-25T12:24:17;7.30;1.00
1461;DHT22;724;49.910;12.530;2022-11-25T12:26:52;7.60;1.00
1461;DHT22;724;49.910;12.530;2022-11-25T12:29:27;7.90;1.00
1461;DHT22;724;49.910;12.530;2022-11-25T12:32:18;8.10;1.00
1461;DHT22;724;49.910;12.530;2022-11-25T12:34:52;8.10;99.90
1461;DHT22;724;49.910;12.530;2022-11-25T12:37:29;7.50;99.90
1461;DHT22;724;49.910;12.530;2022-11-25T12:40:06;7.00;1.00
1461;DHT22;724;49.910;12.530;2022-11-25T12:42:38;6.80;1.00
1461;DHT22;724;49.910;12.530;2022-11-25T12:45:14;6.70;1.00
1461;DHT22;724;49.910;12.530;2022-11-25T12:47:43;6.60;1.00
1461;DHT22;724;49.910;12.530;2022-11-25T12:50:15;6.90;1.00
1461;DHT22;724;49.910;12.530;2022-11-25T12:52:50;7.20;1.00
1461;DHT22;724;49.910;12.530;2022-11-25T12:55:22;7.50;1.00
1461;DHT22;724;49.910;12.530;2022-11-25T12:58:18;8.00;1.00
1461;DHT22;724;49.910;12.530;2022-11-25T13:04:09;7.90;1.00
1461;DHT22;724;49.910;12.530;2022-11-25T13:07:07;7.50;1.00
1461;DHT22;724;49.910;12.530;2022-11-25T13:10:00;7.80;1.00
1461;DHT22;724;49.910;12.530;2022-11-25T13:12:41;7.80;1.00
1461;DHT22;724;49.910;12.530;2022-11-25T13:15:25;7.20;1.00
1461;DHT22;724;49.910;12.530;2022-11-25T13:17:56;7.30;1.00
1461;DHT22;724;49.910;12.530;2022-11-25T13:20:46;7.40;1.00
1461;DHT22;724;49.910;12.530;2022-11-25T13:23:27;7.00;1.00
1461;DHT22;724;49.910;12.530;2022-11-25T13:28:55;7.20;1.00
1461;DHT22;724;49.910;12.530;2022-11-25T13:31:23;7.00;1.00
1461;DHT22;724;49.910;12.530;2022-11-25T13:34:21;6.70;1.00
1461;DHT22;724;49.910;12.530;2022-11-25T13:36:51;6.50;1.00
1461;DHT22;724;49.910;12.530;2022-11-25T13:39:28;6.30;1.00
1461;DHT22;724;49.910;12.530;2022-11-25T13:42:00;6.20;1.00
1461;DHT22;724;49.910;12.530;2022-11-25T13:44:31;6.20;1.00
1461;DHT22;724;49.910;12.530;2022-11-25T13:50:17;5.90;1.00
1461;DHT22;724;49.910;12.530;2022-11-25T13:52:49;5.80;1.00
1461;DHT22;724;49.910;12.530;2022-11-25T13:55:29;5.70;1.00
1461;DHT22;724;49.910;12.530;2022-11-25T13:58:12;5.90;99.90
1461;DHT22;724;49.910;12.530;2022-11-25T14:00:48;5.90;99.90
1461;DHT22;724;49.910;12.530;2022-11-25T14:03:48;5.80;1.00
1461;DHT22;724;49.910;12.530;2022-11-25T14:06:48;5.80;99.90
1461;DHT22;724;49.910;12.530;2022-11-25T14:09:40;5.70;93.30
1461;DHT22;724;49.910;12.530;2022-11-25T14:15:12;5.70;99.90
1461;DHT22;724;49.910;12.530;2022-11-25T14:18:20;5.70;99.90
1461;DHT22;724;49.910;12.530;2022-11-25T14:20:55;5.70;99.90
1461;DHT22;724;49.910;12.530;2022-11-25T14:23:43;5.60;99.90
1461;DHT22;724;49.910;12.530;2022-11-25T14:26:24;5.30;99.90
1461;DHT22;724;49.910;12.530;2022-11-25T14:28:56;5.30;1.00
1461;DHT22;724;49.910;12.530;2022-11-25T14:31:29;5.40;1.00
1461;DHT22;724;49.910;12.530;2022-11-25T14:34:04;5.20;99.90
1461;DHT22;724;49.910;12.530;2022-11-25T14:36:39;5.00;99.90
1461;DHT22;724;49.910;12.530;2022-11-25T14:39:15;5.00;99.90
1461;DHT22;724;49.910;12.530;2022-11-25T14:41:46;5.00;99.90
1461;DHT22;724;49.910;12.530;2022-11-25T14:44:18;4.80;1.00
1461;DHT22;724;49.910;12.530;2022-11-25T14:46:52;4.90;1.00
1461;DHT22;724;49.910;12.530;2022-11-25T14:49:43;4.70;1.00
1461;DHT22;724;49.910;12.530;2022-11-25T14:52:17;4.80;1.00
1461;DHT22;724;49.910;12.530;2022-11-25T14:54:45;4.80;1.00
1461;DHT22;724;49.910;12.530;2022-11-25T14:57:12;4.80;1.00
1461;DHT22;724;49.910;12.530;2022-11-25T14:59:39;4.90;1.00
1461;DHT22;724;49.910;12.530;2022-11-25T15:02:22;4.80;1.00
1461;DHT22;724;49.910;12.530;2022-11-25T15:04:50;4.50;1.00
1461;DHT22;724;49.910;12.530;2022-11-25T15:07:20;4.70;99.90
1461;DHT22;724;49.910;12.530;2022-11-25T15:09:48;4.60;99.90
1461;DHT22;724;49.910;12.530;2022-11-25T15:12:16;4.60;99.90
1461;DHT22;724;49.910;12.530;2022-11-25T15:14:48;4.50;1.00
1461;DHT22;724;49.910;12.530;2022-11-25T15:17:23;4.50;1.00
1461;DHT22;724;49.910;12.530;2022-11-25T15:19:52;4.40;1.00
1461;DHT22;724;49.910;12.530;2022-11-25T15:22:20;4.40;34.50
1461;DHT22;724;49.910;12.530;2022-11-25T15:24:48;4.40;99.90
1461;DHT22;724;49.910;12.530;2022-11-25T15:27:18;4.40;99.90
1461;DHT22;724;49.910;12.530;2022-11-25T15:29:47;4.30;99.90
1461;DHT22;724;49.910;12.530;2022-11-25T15:32:17;4.40;1.00
1461;DHT22;724;49.910;12.530;2022-11-25T15:34:44;4.40;1.00
1461;DHT22;724;49.910;12.530;2022-11-25T15:37:15;4.20;1.00
1461;DHT22;724;49.910;12.530;2022-11-25T15:39:42;4.40;1.00
1461;DHT22;724;49.910;12.530;2022-11-25T15:42:15;4.40;1.00
1461;DHT22;724;49.910;12.530;2022-11-25T15:44:48;4.30;1.00
1461;DHT22;724;49.910;12.530;2022-11-25T15:47:20;4.30;99.90
1461;DHT22;724;49.910;12.530;2022-11-25T15:49:52;4.20;99.90
1461;DHT22;724;49.910;12.530;2022-11-25T15:52:23;4.20;99.90
1461;DHT22;724;49.910;12.530;2022-11-25T15:54:51;4.20;99.90
1461;DHT22;724;49.910;12.530;2022-11-25T15:57:22;4.20;99.90
1461;DHT22;724;49.910;12.530;2022-11-25T16:00:02;4.20;99.90
1461;DHT22;724;49.910;12.530;2022-11-25T16:02:48;4.10;99.90
1461;DHT22;724;49.910;12.530;2022-11-25T16:05:25;4.10;99.90
1461;DHT22;724;49.910;12.530;2022-11-25T16:07:59;4.10;99.90
1461;DHT22;724;49.910;12.530;2022-11-25T16:10:29;4.10;99.90
1461;DHT22;724;49.910;12.530;2022-11-25T16:13:16;4.20;99.90
1461;DHT22;724;49.910;12.530;2022-11-25T16:15:46;4.10;1.00
1461;DHT22;724;49.910;12.530;2022-11-25T16:18:15;4.10;1.00
1461;DHT22;724;49.910;12.530;2022-11-25T16:20:46;4.10;1.00
1461;DHT22;724;49.910;12.530;2022-11-25T16:23:15;4.10;1.00
1461;DHT22;724;49.910;12.530;2022-11-25T16:25:47;4.10;1.00
1461;DHT22;724;49.910;12.530;2022-11-25T16:28:18;4.10;1.00
1461;DHT22;724;49.910;12.530;2022-11-25T16:30:46;4.10;1.00
1461;DHT22;724;49.910;12.530;2022-11-25T16:33:12;4.00;1.00
1461;DHT22;724;49.910;12.530;2022-11-25T16:35:43;4.10;1.00
1461;DHT22;724;49.910;12.530;2022-11-25T16:38:10;4.00;1.00
1461;DHT22;724;49.910;12.530;2022-11-25T16:40:38;4.00;1.00
1461;DHT22;724;49.910;12.530;2022-11-25T16:43:12;4.10;1.00
1461;DHT22;724;49.910;12.530;2022-11-25T16:45:39;4.10;1.00
1461;DHT22;724;49.910;12.530;2022-11-25T16:48:13;4.10;1.00
1461;DHT22;724;49.910;12.530;2022-11-25T16:50:41;4.00;1.00
1461;DHT22;724;49.910;12.530;2022-11-25T16:53:08;4.10;1.00
1461;DHT22;724;49.910;12.530;2022-11-25T16:55:37;4.00;1.00
1461;DHT22;724;49.910;12.530;2022-11-25T16:58:12;4.00;1.00
1461;DHT22;724;49.910;12.530;2022-11-25T17:00:41;4.00;1.00